Time;durP1;ratioP1;P1;durP2;ratioP2;P2;SDS_P1;SDS_P2;PMS_P1;PMS_P2;Temp;Humidity;BMP_temperature;BMP_pressure;BME280_temperature;BME280_humidity;BME280_pressure;Samples;Min_cycle;Max_cycle;Signal;HPM_P1;HPM_P2
2022/11/17 01:24:33;;;;;;;18.10;2.00;;;13.10;99.90;;;;;;4073025;29;20231;-96
2022/11/17 02:08:24;;;;;;;14.70;2.05;;;13.20;99.90;;;;;;4418680;23;20244;-95
2022/11/17 04:23:45;;;;;;;7.20;1.13;;;12.30;99.90;;;;;;4100295;28;20230;-95
2022/11/17 04:29:03;;;;;;;12.45;1.77;;;12.10;99.90;;;;;;4116717;28;20186;-93
2022/11/17 04:31:18;;;;;;;8.02;0.85;;;12.10;99.90;;;;;;4101604;28;20254;-95
2022/11/17 04:34:44;;;;;;;6.93;0.80;;;12.00;99.90;;;;;;4101488;28;20201;-95
2022/11/17 04:39:37;;;;;;;4.88;0.70;;;12.10;99.90;;;;;;4091467;28;20202;-95
2022/11/17 04:42:15;;;;;;;5.25;0.52;;;12.10;99.90;;;;;;4090323;28;20270;-94
2022/11/17 04:44:52;;;;;;;7.32;0.55;;;12.00;99.90;;;;;;4090138;28;20204;-95
2022/11/17 04:47:02;;;;;;;5.22;0.60;;;11.80;99.90;;;;;;4102475;28;20183;-94
2022/11/17 04:49:07;;;;;;;3.53;0.38;;;11.80;99.90;;;;;;4102721;28;20209;-96
2022/11/17 04:51:57;;;;;;;1.95;0.40;;;11.70;99.90;;;;;;4115039;28;20274;-94
2022/11/17 04:54:08;;;;;;;4.43;0.55;;;11.70;99.90;;;;;;4101804;28;20302;-94
2022/11/17 04:56:40;;;;;;;4.50;0.55;;;11.70;99.90;;;;;;4102896;28;20198;-94
2022/11/17 04:59:17;;;;;;;3.72;0.47;;;11.50;99.90;;;;;;4053941;29;20188;-94
2022/11/17 05:01:21;;;;;;;3.78;0.47;;;11.50;99.90;;;;;;4098821;28;20277;-93
2022/11/17 05:04:05;;;;;;;3.58;0.43;;;11.40;99.90;;;;;;4117237;28;20745;-95
2022/11/17 05:06:22;;;;;;;3.47;0.30;;;11.30;99.90;;;;;;4076302;29;20179;-94
2022/11/17 05:09:04;;;;;;;3.67;0.40;;;11.30;99.90;;;;;;4105205;28;20186;-95
2022/11/17 05:18:14;;;;;;;5.88;0.68;;;11.40;99.90;;;;;;4055501;29;20195;-95
2022/11/17 05:20:17;;;;;;;5.68;0.70;;;11.20;99.90;;;;;;4070925;29;20705;-95
2022/11/17 05:25:48;;;;;;;7.47;0.80;;;11.20;99.90;;;;;;4086627;28;20194;-95
2022/11/17 05:28:15;;;;;;;7.03;0.57;;;11.20;99.90;;;;;;4101967;28;20662;-96
2022/11/17 05:30:20;;;;;;;2.92;0.52;;;11.10;99.90;;;;;;4101642;28;20230;-94
2022/11/17 05:32:42;;;;;;;2.45;0.50;;;11.20;99.90;;;;;;4100895;28;20592;-94
2022/11/17 05:34:43;;;;;;;5.10;0.52;;;11.30;99.90;;;;;;4103005;28;20189;-94
2022/11/17 05:37:04;;;;;;;8.25;0.55;;;11.10;99.90;;;;;;4090265;28;20206;-93
2022/11/17 05:39:33;;;;;;;7.57;0.70;;;11.00;99.90;;;;;;4117473;28;20284;-95
2022/11/17 05:42:02;;;;;;;2.65;0.40;;;11.10;99.90;;;;;;4101128;28;20261;-93
2022/11/17 05:44:11;;;;;;;2.85;0.50;;;11.10;99.90;;;;;;4100732;28;20214;-94
2022/11/17 05:46:38;;;;;;;4.38;0.50;;;11.10;99.90;;;;;;4103109;28;20179;-94
2022/11/17 05:48:49;;;;;;;6.40;0.50;;;11.10;99.90;;;;;;4081548;29;20195;-93
2022/11/17 05:51:32;;;;;;;;;;;;;;;;;;;;;
2022/11/17 05:53:36;;;;;;;6.07;0.60;;;11.10;99.90;;;;;;4110434;28;20206;-93
2022/11/17 05:55:43;;;;;;;1.70;0.60;;;11.10;99.90;;;;;;4100528;28;20167;-94
2022/11/17 05:57:50;;;;;;;2.70;0.30;;;11.20;99.90;;;;;;4100001;28;20197;-94
2022/11/17 06:00:22;;;;;;;6.05;0.52;;;11.20;99.90;;;;;;4100723;28;20265;-93
2022/11/17 06:02:51;;;;;;;6.18;0.52;;;11.20;99.90;;;;;;4101077;28;20200;-92
2022/11/17 06:04:54;;;;;;;4.63;0.60;;;11.30;99.90;;;;;;4099582;28;20194;-93
2022/11/17 06:10:02;;;;;;;3.55;0.30;;;11.40;99.90;;;;;;4096632;28;20781;-93
2022/11/17 06:12:03;;;;;;;3.75;0.50;;;11.40;99.90;;;;;;4100823;28;20269;-94
2022/11/17 06:14:18;;;;;;;6.35;0.63;;;11.30;99.90;;;;;;4115715;28;20569;-96
2022/11/17 06:16:40;;;;;;;5.25;0.70;;;11.40;99.90;;;;;;4117110;28;20181;-94
2022/11/17 06:19:05;;;;;;;5.50;0.63;;;11.40;99.90;;;;;;4100833;28;20182;-93
2022/11/17 06:21:33;;;;;;;2.25;0.40;;;11.50;99.90;;;;;;4086311;29;20180;-94
2022/11/17 06:23:59;;;;;;;5.70;0.57;;;11.30;99.90;;;;;;4052323;29;20251;-96
2022/11/17 06:29:30;;;;;;;6.90;0.40;;;11.20;99.90;;;;;;4062352;29;20712;-94
2022/11/17 06:31:40;;;;;;;3.95;0.70;;;11.10;99.90;;;;;;4067728;29;20185;-93
2022/11/17 06:33:50;;;;;;;6.70;0.60;;;11.30;99.90;;;;;;4070625;28;20212;-93
2022/11/17 06:35:58;;;;;;;4.45;0.68;;;11.20;99.90;;;;;;4115763;28;20599;-93
2022/11/17 06:38:00;;;;;;;2.80;0.68;;;11.20;99.90;;;;;;4100593;28;20187;-93
2022/11/17 06:40:10;;;;;;;4.82;0.52;;;11.30;99.90;;;;;;4100427;28;20183;-94
2022/11/17 06:43:02;;;;;;;3.45;0.60;;;11.40;99.90;;;;;;4100538;28;20171;-93
2022/11/17 06:45:29;;;;;;;;;;;;;;;;;;;;;
2022/11/17 06:47:55;;;;;;;5.20;0.65;;;11.40;99.90;;;;;;4097953;28;20186;-93
2022/11/17 06:50:10;;;;;;;7.78;0.52;;;11.30;99.90;;;;;;4100071;28;20186;-94
2022/11/17 06:52:19;;;;;;;3.38;0.38;;;11.30;99.90;;;;;;4099997;28;20307;-94
2022/11/17 06:54:25;;;;;;;4.57;0.57;;;11.40;99.90;;;;;;4099685;28;20199;-95
2022/11/17 06:56:54;;;;;;;;;;;;;;;;;;;;;
2022/11/17 06:59:04;;;;;;;4.55;0.40;;;11.50;99.90;;;;;;4100449;28;20195;-94
2022/11/17 07:01:44;;;;;;;5.05;0.70;;;11.50;99.90;;;;;;4118264;28;20170;-94
2022/11/17 07:04:14;;;;;;;3.28;0.60;;;11.50;99.90;;;;;;4093007;28;20279;-93
2022/11/17 07:06:43;;;;;;;6.55;0.55;;;11.60;99.90;;;;;;4104643;28;20194;-93
2022/11/17 07:09:13;;;;;;;1.27;0.43;;;11.60;99.90;;;;;;4100062;28;20183;-94
2022/11/17 07:11:33;;;;;;;5.75;0.60;;;11.50;99.90;;;;;;4118090;28;20174;-93
2022/11/17 07:17:40;;;;;;;8.18;0.60;;;11.40;99.90;;;;;;4101425;28;20194;-95
2022/11/17 07:19:46;;;;;;;6.95;0.50;;;11.30;99.90;;;;;;4086299;29;20179;-96
2022/11/17 07:24:50;;;;;;;2.08;0.50;;;11.30;99.90;;;;;;4090417;28;20219;-93
2022/11/17 07:27:03;;;;;;;3.78;0.60;;;11.30;99.90;;;;;;4087147;29;20218;-93
2022/11/17 07:33:01;;;;;;;4.40;1.10;;;11.20;99.90;;;;;;4094823;28;20190;-96
2022/11/17 07:35:53;;;;;;;;;;;;;;;;;;;;;
2022/11/17 07:38:24;;;;;;;1.20;0.28;;;11.20;99.90;;;;;;4075275;28;20198;-96
2022/11/17 07:44:48;;;;;;;2.15;0.40;;;11.20;99.90;;;;;;4054903;29;20276;-94
2022/11/17 07:50:59;;;;;;;1.63;0.50;;;11.20;99.90;;;;;;4042638;29;20185;-94
2022/11/17 07:53:36;;;;;;;2.75;0.40;;;11.10;99.90;;;;;;4054960;29;20209;-95
2022/11/17 08:00:21;;;;;;;2.58;0.43;;;11.30;99.90;;;;;;4070789;29;20198;-94
2022/11/17 08:03:14;;;;;;;;;;;;;;;;;;;;;
2022/11/17 08:05:38;;;;;;;3.15;0.40;;;11.40;99.90;;;;;;4055431;29;20228;-94
2022/11/17 08:08:58;;;;;;;3.92;0.60;;;11.40;99.90;;;;;;4011429;29;20281;-94
2022/11/17 08:11:38;;;;;;;3.90;0.40;;;11.30;99.90;;;;;;4050866;29;20295;-94
2022/11/17 08:17:33;;;;;;;6.53;0.47;;;11.20;99.90;;;;;;4095012;28;20187;-92
2022/11/17 08:25:46;;;;;;;2.33;0.60;;;11.50;99.90;;;;;;4094841;28;20788;-94
2022/11/17 08:28:36;;;;;;;8.02;4.30;;;11.50;99.90;;;;;;4117415;28;20162;-95
2022/11/17 08:31:40;;;;;;;4.07;0.63;;;11.40;99.90;;;;;;4117152;28;20216;-95
2022/11/17 08:34:16;;;;;;;6.75;1.02;;;11.50;99.90;;;;;;4039453;29;20261;-95
2022/11/17 08:36:56;;;;;;;3.85;0.60;;;11.40;99.90;;;;;;4024582;29;20194;-94
2022/11/17 08:39:14;;;;;;;8.48;0.73;;;11.50;99.90;;;;;;4005530;29;20198;-94
2022/11/17 08:45:09;;;;;;;3.15;0.35;;;11.50;99.90;;;;;;4008585;29;20245;-93
2022/11/17 08:47:39;;;;;;;6.00;0.70;;;11.50;99.90;;;;;;4021533;29;20194;-95
2022/11/17 08:49:56;;;;;;;1.65;0.50;;;11.50;99.90;;;;;;3993430;29;20198;-93
2022/11/17 08:52:00;;;;;;;10.60;0.73;;;11.60;99.90;;;;;;3994443;29;20269;-95
2022/11/17 08:54:14;;;;;;;3.85;0.40;;;11.50;99.90;;;;;;3992159;29;20208;-93
2022/11/17 08:56:18;;;;;;;2.35;0.35;;;11.40;99.90;;;;;;3992436;29;20175;-92
2022/11/17 08:58:19;;;;;;;1.10;0.40;;;11.50;99.90;;;;;;3994602;29;20295;-94
2022/11/17 09:02:59;;;;;;;9.82;0.50;;;11.50;99.90;;;;;;4071288;29;20184;-95
2022/11/17 09:05:35;;;;;;;;;;;;;;;;;;;;;
2022/11/17 09:07:36;;;;;;;2.55;0.77;;;11.50;99.90;;;;;;4117380;28;20227;-91
2022/11/17 09:09:42;;;;;;;4.88;0.80;;;11.60;99.90;;;;;;4085357;29;20231;-91
2022/11/17 09:11:43;;;;;;;7.55;0.57;;;11.60;99.90;;;;;;4117161;28;20170;-92
2022/11/17 09:13:56;;;;;;;5.55;0.50;;;11.60;99.90;;;;;;4100634;28;20209;-93
2022/11/17 09:16:16;;;;;;;6.82;0.65;;;11.70;99.90;;;;;;4116775;28;20174;-94
2022/11/17 09:18:20;;;;;;;4.85;0.70;;;11.70;99.90;;;;;;4117073;28;20217;-94
2022/11/17 09:20:34;;;;;;;4.07;0.75;;;11.80;99.90;;;;;;4085369;29;20180;-93
2022/11/17 09:22:40;;;;;;;5.45;0.80;;;11.90;99.90;;;;;;4120986;28;20237;-93
2022/11/17 09:24:44;;;;;;;5.85;0.50;;;12.00;99.90;;;;;;4124017;28;20308;-93
2022/11/17 09:26:47;;;;;;;4.53;0.88;;;12.00;99.90;;;;;;4117179;28;20185;-93
2022/11/17 09:28:48;;;;;;;5.43;1.40;;;12.00;99.90;;;;;;4116215;28;20162;-93
2022/11/17 09:30:52;;;;;;;5.75;0.77;;;12.00;99.90;;;;;;4104879;28;20225;-92
2022/11/17 09:33:01;;;;;;;3.13;0.50;;;12.20;99.90;;;;;;4093146;29;20231;-92
2022/11/17 09:35:13;;;;;;;4.80;0.75;;;12.20;99.90;;;;;;4124542;28;20207;-93
2022/11/17 09:37:17;;;;;;;5.45;0.68;;;12.40;99.90;;;;;;4123500;28;20264;-93
2022/11/17 09:42:54;;;;;;;4.18;0.57;;;12.40;99.90;;;;;;4106358;28;20628;-93
2022/11/17 09:45:30;;;;;;;6.97;0.68;;;12.20;99.90;;;;;;4096461;28;20195;-93
2022/11/17 09:48:26;;;;;;;6.20;0.68;;;12.30;99.90;;;;;;4108849;28;20177;-94
2022/11/17 09:50:39;;;;;;;3.63;1.02;;;12.40;99.90;;;;;;4091475;28;20183;-92
2022/11/17 09:53:04;;;;;;;2.28;0.43;;;12.30;99.90;;;;;;4116816;28;20213;-93
2022/11/17 09:55:32;;;;;;;7.43;0.55;;;12.40;99.90;;;;;;4084754;29;20191;-93
2022/11/17 09:58:00;;;;;;;5.18;0.60;;;12.40;99.90;;;;;;4101246;28;20660;-95
2022/11/17 10:00:17;;;;;;;3.47;0.77;;;12.40;99.90;;;;;;4098602;28;20183;-93
2022/11/17 10:02:32;;;;;;;3.55;0.60;;;12.40;99.90;;;;;;4100476;28;20632;-94
2022/11/17 10:05:05;;;;;;;4.03;0.50;;;12.50;99.90;;;;;;4100212;28;20652;-95
2022/11/17 10:07:43;;;;;;;8.68;3.70;;;12.60;99.90;;;;;;4084538;29;20190;-94
2022/11/17 10:09:54;;;;;;;;;;;;;;;;;;;;;
2022/11/17 10:12:28;;;;;;;6.43;0.60;;;12.40;99.90;;;;;;4068580;29;20213;-95
2022/11/17 10:14:51;;;;;;;3.65;0.50;;;12.40;99.90;;;;;;4053196;29;20311;-95
2022/11/17 10:17:38;;;;;;;2.97;0.40;;;12.40;99.90;;;;;;4052629;29;20217;-94
2022/11/17 10:20:23;;;;;;;4.28;0.60;;;12.40;99.90;;;;;;4041035;29;20274;-93
2022/11/17 10:28:54;;;;;;;;;;;;;;;;;;;;;
2022/11/17 10:32:34;;;;;;;4.05;0.60;;;11.80;99.90;;;;;;4051990;29;20177;-95
2022/11/17 10:41:53;;;;;;;3.00;0.65;;;11.90;99.90;;;;;;4026198;29;20193;-96
2022/11/17 10:44:37;;;;;;;3.30;0.75;;;11.80;99.90;;;;;;4043594;29;20221;-93
2022/11/17 10:51:19;;;;;;;4.35;0.52;;;12.10;99.90;;;;;;4066332;29;20189;-92
2022/11/17 10:53:40;;;;;;;8.90;0.90;;;12.40;99.90;;;;;;4070867;29;20200;-93
2022/11/17 10:56:31;;;;;;;6.13;0.63;;;12.50;99.90;;;;;;4055392;29;20192;-95
2022/11/17 10:59:28;;;;;;;4.82;0.75;;;12.80;99.90;;;;;;4055580;29;20185;-95
2022/11/17 11:01:51;;;;;;;4.97;0.77;;;12.90;99.90;;;;;;4009128;29;20648;-94
2022/11/17 11:04:38;;;;;;;5.20;0.73;;;13.10;99.90;;;;;;4009926;29;20222;-93
2022/11/17 11:06:39;;;;;;;4.70;0.60;;;13.20;99.90;;;;;;4009365;29;20194;-93
2022/11/17 11:09:00;;;;;;;3.22;0.70;;;13.20;99.90;;;;;;4029139;29;20240;-94
2022/11/17 11:11:50;;;;;;;4.82;0.90;;;13.10;99.90;;;;;;4040427;29;20174;-94
2022/11/17 11:14:31;;;;;;;2.47;0.50;;;13.20;99.90;;;;;;4072384;29;20220;-94
2022/11/17 11:17:04;;;;;;;;;;;;;;;;;;;;;
2022/11/17 11:19:59;;;;;;;3.55;0.60;;;13.10;99.90;;;;;;4104061;28;20210;-94
2022/11/17 11:22:45;;;;;;;1.15;0.40;;;13.10;99.90;;;;;;4102382;28;20229;-93
2022/11/17 11:25:40;;;;;;;3.65;0.82;;;13.10;99.90;;;;;;4119468;28;20285;-96
2022/11/17 11:28:22;;;;;;;2.30;0.40;;;13.10;99.90;;;;;;4103186;28;20195;-94
2022/11/17 11:30:23;;;;;;;1.85;0.30;;;13.10;99.90;;;;;;4104156;28;20281;-95
2022/11/17 11:33:01;;;;;;;1.77;0.40;;;13.10;99.90;;;;;;4103655;28;20190;-96
2022/11/17 11:42:58;;;;;;;;;;;;;;;;;;;;;
2022/11/17 11:45:25;;;;;;;3.22;0.90;;;13.50;99.90;;;;;;4102001;28;20727;-95
2022/11/17 11:48:03;;;;;;;3.92;0.70;;;13.60;99.90;;;;;;4087449;29;20184;-95
2022/11/17 11:50:55;;;;;;;1.75;0.70;;;13.50;99.90;;;;;;4103859;28;20189;-93
2022/11/17 12:08:41;;;;;;;1.35;0.40;;;13.10;99.90;;;;;;4057720;29;20297;-95
2022/11/17 12:14:50;;;;;;;5.15;0.45;;;13.30;99.90;;;;;;4079547;29;20311;-91
2022/11/17 12:20:48;;;;;;;5.88;1.40;;;13.00;99.90;;;;;;4028023;29;20190;-94
2022/11/17 12:26:46;;;;;;;3.58;0.40;;;12.90;99.90;;;;;;4058356;29;20219;-93
2022/11/17 12:29:32;;;;;;;;;;;;;;;;;;;;;
2022/11/17 12:31:49;;;;;;;1.55;0.25;;;13.10;99.90;;;;;;4056139;29;20185;-93
2022/11/17 12:34:45;;;;;;;5.55;0.40;;;12.90;99.90;;;;;;4054662;29;20607;-94
2022/11/17 12:37:51;;;;;;;4.30;0.50;;;13.00;99.90;;;;;;4053152;29;20213;-94
2022/11/17 12:40:32;;;;;;;2.40;0.43;;;13.10;99.90;;;;;;4038502;29;20284;-96
2022/11/17 12:42:58;;;;;;;2.83;0.50;;;13.00;99.90;;;;;;4084256;29;20245;-94
2022/11/17 12:45:18;;;;;;;2.05;0.50;;;13.00;99.90;;;;;;4101073;28;20191;-94
2022/11/17 12:47:36;;;;;;;3.97;0.57;;;13.10;99.90;;;;;;4100716;28;20190;-94
2022/11/17 12:50:23;;;;;;;2.15;0.50;;;13.20;99.90;;;;;;4101039;28;20209;-95
2022/11/17 12:52:50;;;;;;;1.17;0.40;;;13.30;99.90;;;;;;4085538;29;20175;-94
2022/11/17 12:55:03;;;;;;;1.40;0.47;;;13.30;99.90;;;;;;4085535;29;20188;-96
2022/11/17 12:57:41;;;;;;;2.58;1.13;;;13.40;99.90;;;;;;4084493;29;20239;-95
2022/11/17 13:03:23;;;;;;;4.22;0.77;;;13.60;99.90;;;;;;4097191;28;20267;-94
2022/11/17 13:05:34;;;;;;;3.70;0.77;;;13.70;99.90;;;;;;4101870;28;20277;-94
2022/11/17 13:07:37;;;;;;;4.05;1.00;;;13.50;99.90;;;;;;4084606;29;20179;-94
2022/11/17 13:10:29;;;;;;;2.70;0.45;;;13.50;99.90;;;;;;4102122;28;20295;-95
2022/11/17 13:12:54;;;;;;;3.05;0.47;;;13.40;99.90;;;;;;4096617;28;20186;-93
2022/11/17 13:15:19;;;;;;;3.55;0.98;;;13.20;99.90;;;;;;4085619;29;20191;-95
2022/11/17 13:18:39;;;;;;;;;;;;;;;;;;;;;
2022/11/17 13:21:06;;;;;;;3.58;0.50;;;13.10;99.90;;;;;;4102606;28;20254;-93
2022/11/17 13:23:58;;;;;;;3.78;0.65;;;13.10;99.90;;;;;;4100529;28;20713;-94
2022/11/17 13:26:43;;;;;;;3.58;0.60;;;13.20;99.90;;;;;;4087589;28;20193;-95
2022/11/17 13:29:34;;;;;;;3.08;0.55;;;13.40;99.90;;;;;;4102805;28;20186;-93
2022/11/17 13:32:31;;;;;;;3.22;0.60;;;13.10;99.90;;;;;;4084294;29;20186;-96
2022/11/17 13:35:33;;;;;;;2.15;0.45;;;13.30;99.90;;;;;;4068155;29;20184;-93
2022/11/17 13:38:36;;;;;;;3.05;0.47;;;13.40;99.90;;;;;;4060953;28;20195;-93
2022/11/17 13:41:26;;;;;;;2.72;0.70;;;13.40;99.90;;;;;;4100247;28;20187;-95
2022/11/17 13:45:13;;;;;;;2.88;0.40;;;13.50;99.90;;;;;;4094922;28;20226;-94
2022/11/17 13:48:07;;;;;;;2.28;0.40;;;13.60;99.90;;;;;;4099484;28;20703;-95
2022/11/17 13:53:33;;;;;;;1.35;0.30;;;13.70;99.90;;;;;;4067754;29;20208;-94
2022/11/17 13:55:55;;;;;;;4.25;0.60;;;13.70;99.90;;;;;;4073005;29;20198;-93
2022/11/17 14:02:02;;;;;;;;;;;;;;;;;;;;;
2022/11/17 14:04:35;;;;;;;3.80;0.50;;;13.80;99.90;;;;;;4096571;28;20234;-93
2022/11/17 14:07:07;;;;;;;4.18;0.50;;;13.70;99.90;;;;;;4083890;29;20549;-93
2022/11/17 14:09:12;;;;;;;6.22;0.65;;;13.60;99.90;;;;;;4086004;29;20294;-92
2022/11/17 14:11:42;;;;;;;2.67;0.40;;;13.70;99.90;;;;;;4094806;28;20186;-95
2022/11/17 14:15:11;;;;;;;7.93;0.50;;;13.70;99.90;;;;;;4087460;29;20202;-95
2022/11/17 14:17:21;;;;;;;2.10;0.70;;;13.40;99.90;;;;;;4057089;29;20213;-95
2022/11/17 14:19:52;;;;;;;20.05;8.27;;;13.40;99.90;;;;;;4088173;28;20261;-94
2022/11/17 14:22:30;;;;;;;63.33;25.20;;;13.40;99.90;;;;;;4103328;28;20178;-93
2022/11/17 14:25:01;;;;;;;8.98;2.38;;;13.50;99.90;;;;;;4102877;28;20710;-93
2022/11/17 14:30:27;;;;;;;4.45;0.60;;;13.50;99.90;;;;;;4087630;29;20175;-94
2022/11/17 14:32:33;;;;;;;5.13;0.40;;;13.40;99.90;;;;;;4070975;29;20241;-94
2022/11/17 14:34:44;;;;;;;4.90;0.73;;;13.50;99.90;;;;;;4083352;28;20194;-92
2022/11/17 14:37:01;;;;;;;4.25;0.75;;;13.50;99.90;;;;;;4103374;28;20175;-95
2022/11/17 14:39:50;;;;;;;3.40;1.23;;;13.30;99.90;;;;;;4086907;29;20186;-95
2022/11/17 14:41:54;;;;;;;4.97;0.50;;;13.50;99.90;;;;;;4055089;29;20538;-93
2022/11/17 14:44:14;;;;;;;2.20;0.50;;;13.30;99.90;;;;;;4070403;29;20227;-92
2022/11/17 14:46:23;;;;;;;1.55;0.50;;;13.40;99.90;;;;;;4064616;28;20285;-95
2022/11/17 14:48:38;;;;;;;4.93;0.50;;;13.40;99.90;;;;;;4102685;28;20186;-94
2022/11/17 14:51:07;;;;;;;2.55;0.25;;;13.40;99.90;;;;;;4102590;28;20171;-94
2022/11/17 15:00:41;;;;;;;4.93;0.50;;;13.20;99.90;;;;;;3997568;29;20190;-96
2022/11/17 15:03:48;;;;;;;9.20;2.00;;;13.00;99.90;;;;;;4025956;29;20198;-94
2022/11/17 15:06:12;;;;;;;2.30;0.40;;;12.80;99.90;;;;;;4054432;29;20687;-96
2022/11/17 15:08:19;;;;;;;1.60;0.35;;;12.70;99.90;;;;;;4052832;29;20278;-94
2022/11/17 15:10:25;;;;;;;2.10;0.45;;;12.70;99.90;;;;;;4078874;29;20194;-95
2022/11/17 15:12:46;;;;;;;5.30;0.43;;;12.70;99.90;;;;;;4086595;28;20172;-94
2022/11/17 15:15:42;;;;;;;2.40;0.35;;;12.70;99.90;;;;;;4088203;29;20198;-96
2022/11/17 15:18:58;;;;;;;3.85;0.63;;;12.70;99.90;;;;;;4054773;29;20281;-96
2022/11/17 15:21:30;;;;;;;3.85;0.60;;;12.60;99.90;;;;;;4037777;29;20247;-94
2022/11/17 15:24:13;;;;;;;2.45;0.52;;;12.70;99.90;;;;;;4037569;29;20217;-95
2022/11/17 15:27:00;;;;;;;;;;;;;;;;;;;;;
2022/11/17 15:29:18;;;;;;;3.88;0.50;;;12.60;99.90;;;;;;4050965;29;20281;-96
2022/11/17 15:32:32;;;;;;;7.15;0.85;;;12.40;99.90;;;;;;4041818;29;20192;-94
2022/11/17 15:39:07;;;;;;;3.50;0.52;;;12.50;99.90;;;;;;4070568;29;20216;-95
2022/11/17 15:41:50;;;;;;;3.88;0.70;;;12.50;99.90;;;;;;4069879;29;20218;-94
2022/11/17 15:54:02;;;;;;;3.47;0.60;;;12.50;99.90;;;;;;4100633;28;20230;-95
2022/11/17 15:56:30;;;;;;;2.97;0.63;;;12.40;99.90;;;;;;4085697;29;20190;-96
2022/11/17 15:59:41;;;;;;;2.25;0.73;;;12.30;99.90;;;;;;4095543;28;20539;-95
2022/11/17 16:06:11;;;;;;;3.15;0.60;;;12.50;99.90;;;;;;4039264;29;20193;-94
2022/11/17 16:08:41;;;;;;;4.85;1.23;;;12.30;99.90;;;;;;4068911;29;20336;-94
2022/11/17 16:11:42;;;;;;;3.55;0.70;;;12.40;99.90;;;;;;4054353;29;20193;-95
2022/11/17 16:14:13;;;;;;;6.97;1.15;;;12.60;99.90;;;;;;4023357;29;20214;-93
2022/11/17 16:17:10;;;;;;;4.32;0.93;;;12.40;99.90;;;;;;4055007;29;20173;-95
2022/11/17 16:19:37;;;;;;;5.32;0.68;;;12.40;99.90;;;;;;4055994;29;20222;-93
2022/11/17 16:21:51;;;;;;;6.60;1.30;;;12.20;99.90;;;;;;4053930;29;20297;-95
2022/11/17 16:23:59;;;;;;;4.47;0.80;;;12.30;99.90;;;;;;4053724;29;20315;-96
2022/11/17 16:26:00;;;;;;;3.55;0.70;;;12.10;99.90;;;;;;4053962;29;20192;-92
2022/11/17 16:28:36;;;;;;;8.05;2.28;;;11.90;99.90;;;;;;4066422;29;20284;-95
2022/11/17 16:31:29;;;;;;;5.70;0.98;;;11.90;99.90;;;;;;4071281;29;20541;-95
2022/11/17 16:33:49;;;;;;;8.77;0.77;;;11.80;99.90;;;;;;4069045;29;20208;-91
2022/11/17 16:35:52;;;;;;;5.30;1.30;;;11.90;99.90;;;;;;4069170;29;20176;-93
2022/11/17 16:38:03;;;;;;;3.42;0.70;;;12.00;99.90;;;;;;4069574;29;20187;-95
2022/11/17 16:40:45;;;;;;;6.38;0.80;;;11.90;99.90;;;;;;4084613;29;20665;-95
2022/11/17 16:43:09;;;;;;;4.15;0.75;;;11.80;99.90;;;;;;4069215;29;20586;-93
2022/11/17 16:45:13;;;;;;;3.40;0.80;;;11.80;99.90;;;;;;4087209;28;20219;-92
2022/11/17 16:47:17;;;;;;;5.78;0.75;;;11.70;99.90;;;;;;4117270;28;20694;-93
2022/11/17 16:49:20;;;;;;;2.78;0.70;;;11.60;99.90;;;;;;4101487;28;20625;-94
2022/11/17 16:51:22;;;;;;;4.38;0.75;;;11.50;99.90;;;;;;4085397;29;20180;-93
2022/11/17 16:53:28;;;;;;;4.13;0.63;;;11.60;99.90;;;;;;4116491;28;20218;-93
2022/11/17 16:55:46;;;;;;;6.72;0.90;;;11.60;99.90;;;;;;4101207;28;20163;-93
2022/11/17 16:58:19;;;;;;;2.78;0.70;;;11.80;99.90;;;;;;4084945;29;20679;-93
2022/11/17 17:00:43;;;;;;;3.05;0.68;;;11.60;99.90;;;;;;4093109;28;20186;-93
2022/11/17 17:03:17;;;;;;;5.50;0.57;;;11.50;99.90;;;;;;4072009;29;20191;-93
2022/11/17 17:05:38;;;;;;;;;;;;;;;;;;;;;
2022/11/17 17:07:39;;;;;;;1.92;0.63;;;11.60;99.90;;;;;;4100794;28;20186;-94
2022/11/17 17:09:54;;;;;;;2.40;0.80;;;11.70;99.90;;;;;;4117441;28;20174;-92
2022/11/17 17:12:27;;;;;;;6.57;0.70;;;11.70;99.90;;;;;;4085031;28;20191;-95
2022/11/17 17:14:44;;;;;;;4.45;0.90;;;11.90;99.90;;;;;;4100689;28;20369;-94
2022/11/17 17:16:53;;;;;;;2.83;0.70;;;11.80;99.90;;;;;;4100228;28;20178;-93
2022/11/17 17:19:13;;;;;;;5.20;0.90;;;11.80;99.90;;;;;;4100281;28;20258;-92
2022/11/17 17:21:18;;;;;;;5.07;0.80;;;11.60;99.90;;;;;;4100694;28;20544;-93
2022/11/17 17:23:21;;;;;;;4.88;0.82;;;11.40;99.90;;;;;;4100724;28;20258;-93
2022/11/17 17:25:24;;;;;;;9.98;3.20;;;11.40;99.90;;;;;;4100691;28;20187;-94
2022/11/17 17:27:31;;;;;;;3.13;0.75;;;11.40;99.90;;;;;;4100719;28;20178;-93
2022/11/17 17:29:40;;;;;;;3.72;0.85;;;11.40;99.90;;;;;;4101436;28;20175;-92
2022/11/17 17:31:51;;;;;;;;;;;;;;;;;;;;;
2022/11/17 17:37:17;;;;;;;4.53;0.77;;;11.20;99.90;;;;;;4084580;28;20186;-94
2022/11/17 17:39:23;;;;;;;4.32;0.80;;;11.00;99.90;;;;;;4084535;29;20183;-94
2022/11/17 17:41:43;;;;;;;1.83;0.47;;;11.10;99.90;;;;;;4084432;29;20629;-91
2022/11/17 17:43:57;;;;;;;3.28;0.88;;;11.10;99.90;;;;;;4099245;28;20215;-92
2022/11/17 17:46:13;;;;;;;2.88;0.70;;;11.30;99.90;;;;;;4101455;28;20179;-93
2022/11/17 17:48:24;;;;;;;5.40;0.90;;;11.40;99.90;;;;;;4100201;28;20674;-93
2022/11/17 17:50:49;;;;;;;3.47;0.75;;;11.50;99.90;;;;;;4100158;28;20166;-94
2022/11/17 17:53:21;;;;;;;6.50;1.05;;;11.30;99.90;;;;;;4100622;28;20633;-94
2022/11/17 17:55:46;;;;;;;5.68;0.90;;;11.30;99.90;;;;;;4100336;28;20183;-93
2022/11/17 17:58:13;;;;;;;2.97;0.80;;;11.30;99.90;;;;;;4106792;28;20193;-94
2022/11/17 18:03:50;;;;;;;7.90;1.00;;;11.10;99.90;;;;;;4083479;29;20230;-94
2022/11/17 18:06:49;;;;;;;;;;;;;;;;;;;;;
2022/11/17 18:09:30;;;;;;;4.47;1.20;;;11.20;99.90;;;;;;4083330;29;20183;-94
2022/11/17 18:11:44;;;;;;;4.68;1.05;;;11.20;99.90;;;;;;4076945;29;20267;-94
2022/11/17 18:14:29;;;;;;;4.18;0.80;;;11.00;99.90;;;;;;4084009;28;20203;-94
2022/11/17 18:17:15;;;;;;;2.58;0.77;;;11.00;99.90;;;;;;4084315;29;20236;-95
2022/11/17 18:19:53;;;;;;;5.07;0.73;;;10.90;99.90;;;;;;4084370;29;20183;-95
2022/11/17 18:22:21;;;;;;;3.92;1.05;;;10.80;99.90;;;;;;4084914;28;20179;-93
2022/11/17 18:25:04;;;;;;;3.13;0.88;;;10.90;99.90;;;;;;4114299;28;20224;-94
2022/11/17 18:27:45;;;;;;;3.13;1.30;;;11.00;99.90;;;;;;4080428;28;20191;-93
2022/11/17 18:30:07;;;;;;;5.90;1.10;;;11.00;99.90;;;;;;4084248;29;20210;-95
2022/11/17 18:32:19;;;;;;;6.55;1.30;;;11.20;99.90;;;;;;4099888;28;20169;-96
2022/11/17 18:34:22;;;;;;;4.82;1.10;;;11.40;99.90;;;;;;4099866;28;20206;-92
2022/11/17 18:36:39;;;;;;;3.90;0.90;;;11.20;99.90;;;;;;4083969;29;20175;-92
2022/11/17 18:39:04;;;;;;;;;;;;;;;;;;;;;
2022/11/17 18:41:10;;;;;;;5.95;1.10;;;10.80;99.90;;;;;;4099974;28;20188;-95
2022/11/17 18:43:17;;;;;;;5.90;1.35;;;10.70;99.90;;;;;;4084321;29;20194;-92
2022/11/17 18:45:55;;;;;;;9.35;1.45;;;10.80;99.90;;;;;;4100332;28;20183;-95
2022/11/17 18:48:01;;;;;;;6.10;1.10;;;10.90;99.90;;;;;;4112491;28;20190;-93
2022/11/17 18:50:14;;;;;;;5.10;0.90;;;10.80;99.90;;;;;;4100348;28;20203;-94
2022/11/17 18:52:20;;;;;;;4.97;1.00;;;10.80;99.90;;;;;;4100976;28;20175;-94
2022/11/17 18:54:47;;;;;;;5.60;1.10;;;10.80;99.90;;;;;;4099970;28;20226;-94
2022/11/17 18:56:53;;;;;;;4.18;1.33;;;10.90;99.90;;;;;;4086925;29;20222;-94
2022/11/17 18:58:59;;;;;;;4.35;1.20;;;11.00;99.90;;;;;;4102455;28;20171;-94
2022/11/17 19:01:55;;;;;;;3.90;0.90;;;10.90;99.90;;;;;;4103280;28;20614;-96
2022/11/17 19:04:01;;;;;;;6.13;1.27;;;11.00;99.90;;;;;;4075750;29;20231;-94
2022/11/17 19:06:20;;;;;;;7.47;1.10;;;11.00;99.90;;;;;;4086692;29;20175;-94
2022/11/17 19:08:49;;;;;;;3.25;0.82;;;10.90;99.90;;;;;;4102601;28;20175;-92
2022/11/17 19:11:18;;;;;;;2.78;1.20;;;11.00;99.90;;;;;;4102513;28;20266;-94
2022/11/17 19:13:57;;;;;;;4.70;1.23;;;11.00;99.90;;;;;;4086871;29;20583;-96
2022/11/17 19:16:24;;;;;;;8.43;1.50;;;11.10;99.90;;;;;;4116283;28;20182;-94
2022/11/17 19:18:37;;;;;;;3.35;0.90;;;11.10;99.90;;;;;;4086623;29;20180;-94
2022/11/17 19:21:14;;;;;;;1.88;0.77;;;11.20;99.90;;;;;;4102632;28;20318;-92
2022/11/17 19:23:23;;;;;;;3.95;0.85;;;11.10;99.90;;;;;;4101181;28;20290;-94
2022/11/17 19:25:52;;;;;;;6.90;1.15;;;11.20;99.90;;;;;;4086998;29;20172;-93
2022/11/17 19:28:07;;;;;;;2.42;0.93;;;11.10;99.90;;;;;;4117983;28;20194;-93
2022/11/17 19:30:12;;;;;;;3.33;0.80;;;11.20;99.90;;;;;;4086158;29;20666;-95
2022/11/17 19:35:28;;;;;;;2.63;0.88;;;11.40;99.90;;;;;;4237429;23;20241;-94
2022/11/17 19:37:45;;;;;;;1.90;0.40;;;11.40;99.90;;;;;;4101747;28;20175;-95
2022/11/17 19:40:14;;;;;;;3.17;0.47;;;11.20;99.90;;;;;;4118098;28;20170;-94
2022/11/17 19:42:40;;;;;;;3.17;0.70;;;11.20;99.90;;;;;;4099428;28;20606;-93
2022/11/17 19:45:08;;;;;;;1.75;0.38;;;11.10;99.90;;;;;;4104162;28;20217;-93
2022/11/17 19:47:11;;;;;;;1.50;0.50;;;11.10;99.90;;;;;;4101945;28;20170;-94
2022/11/17 19:49:30;;;;;;;1.42;0.43;;;11.00;99.90;;;;;;4118971;28;20170;-95
2022/11/17 19:51:45;;;;;;;1.50;0.50;;;10.90;99.90;;;;;;4101828;28;20179;-96
2022/11/17 19:54:17;;;;;;;1.48;0.60;;;10.90;99.90;;;;;;4117957;28;20635;-95
2022/11/17 19:56:22;;;;;;;2.58;0.50;;;10.70;99.90;;;;;;4085827;29;20560;-96
2022/11/17 19:58:43;;;;;;;2.35;0.60;;;10.60;99.90;;;;;;4102270;28;20175;-96